^^
Saratoga-Weather Station Historical Data
Daily Summary for March 24, 2021 Units:  English    Metric   Both
Daily Weekly Monthly Yearly Custom
  High: Low: Average:
Temperature: 72.3 °F 48.9 °F 59.7 °F
Dew Point: 59 °F 47.5 °F 53.4 °F
Humidity: 96% 58% 81%
Wind Speed: 8.9mph 0mph 1.1mph
Wind Gust: 11mph - -
Wind- - West
Pressure: 30.1 in 30 in -
Precipitation: 0 in    
Historical Graphs
 
 
Tabular Data for March 24, 2021
Time Temperature Dew Point Pressure Wind Wind Speed Wind Gust Humidity Rainfall Rate (Hourly) solar
00:04 55.8 °F 52 °F 30.1 in NNW 0.9 mph 7 mph 87% 0 in 0 W/m2
00:09 56.5 °F 52 °F 30.1 in Calm   2 mph 85% 0 in 0 W/m2
00:14 56.7 °F 51.8 °F 30.1 in NW 0.9 mph 4 mph 84% 0 in 0 W/m2
00:19 56.5 °F 51.4 °F 30.1 in Calm   1 mph 83% 0 in 0 W/m2
00:24 56.1 °F 51.4 °F 30.1 in Calm   2 mph 84% 0 in 0 W/m2
00:29 55.9 °F 51.3 °F 30.1 in NW 0.9 mph 3 mph 84% 0 in 0 W/m2
00:34 55.8 °F 51.3 °F 30.1 in NW 2.9 mph 4 mph 85% 0 in 0 W/m2
00:39 55.9 °F 51.4 °F 30.1 in Calm   1 mph 85% 0 in 0 W/m2
00:44 55.9 °F 51.4 °F 30.1 in Calm   4 mph 85% 0 in 0 W/m2
00:49 55.6 °F 51.1 °F 30.1 in Calm     85% 0 in 0 W/m2
00:54 55.2 °F 50.7 °F 30.1 in Calm   3 mph 85% 0 in 0 W/m2
00:59 55 °F 50.9 °F 30.1 in Calm   2 mph 86% 0 in 0 W/m2
01:04 54.7 °F 50.5 °F 30.1 in Calm     86% 0 in 0 W/m2
01:09 54.3 °F 50.2 °F 30.1 in Calm     86% 0 in 0 W/m2
01:14 54.1 °F 50.4 °F 30.1 in West 0.9 mph 2 mph 87% 0 in 0 W/m2
01:19 54 °F 50.2 °F 30.1 in Calm     87% 0 in 0 W/m2
01:24 53.8 °F 50.4 °F 30.1 in West 2 mph 2 mph 88% 0 in 0 W/m2
01:29 53.4 °F 50.2 °F 30.1 in Calm   2 mph 89% 0 in 0 W/m2
01:34 53.2 °F 50 °F 30.1 in Calm     89% 0 in 0 W/m2
01:39 53.2 °F 50 °F 30.1 in West 2 mph 2 mph 89% 0 in 0 W/m2
01:44 53.1 °F 50.2 °F 30.1 in West 0.9 mph 2 mph 90% 0 in 0 W/m2
01:49 53.1 °F 50.2 °F 30.1 in West 2 mph 3 mph 90% 0 in 0 W/m2
01:54 52.9 °F 50 °F 30.1 in West 0.9 mph 2 mph 90% 0 in 0 W/m2
01:59 52.9 °F 50 °F 30.1 in WNW 0.9 mph 2 mph 90% 0 in 0 W/m2
02:04 52.7 °F 49.8 °F 30.1 in WNW 2 mph 2 mph 90% 0 in 0 W/m2
02:09 52.7 °F 50.2 °F 30.1 in WNW 0.9 mph 1 mph 91% 0 in 0 W/m2
02:14 52.5 °F 50 °F 30.1 in WNW 0.9 mph 2 mph 91% 0 in 0 W/m2
02:19 52.5 °F 50 °F 30.1 in Calm   2 mph 91% 0 in 0 W/m2
02:24 52.5 °F 50 °F 30.1 in Calm     91% 0 in 0 W/m2
02:29 52.3 °F 49.8 °F 30.1 in Calm   2 mph 91% 0 in 0 W/m2
02:34 52.3 °F 49.8 °F 30.1 in Calm   1 mph 91% 0 in 0 W/m2
02:39 52.2 °F 49.8 °F 30.1 in Calm   1 mph 92% 0 in 0 W/m2
02:44 52.2 °F 49.8 °F 30.1 in Calm     92% 0 in 0 W/m2
02:49 52.2 °F 49.8 °F 30.1 in Calm     92% 0 in 0 W/m2
02:54 52 °F 49.6 °F 30.1 in Calm     92% 0 in 0 W/m2
02:59 52 °F 49.6 °F 30.1 in Calm     92% 0 in 0 W/m2
03:04 52 °F 49.6 °F 30.1 in Calm     92% 0 in 0 W/m2
03:09 52 °F 49.6 °F 30.1 in Calm     92% 0 in 0 W/m2
03:14 51.8 °F 49.6 °F 30.1 in Calm     92% 0 in 0 W/m2
03:19 51.8 °F 49.8 °F 30.1 in Calm     93% 0 in 0 W/m2
03:24 51.6 °F 49.5 °F 30.1 in Calm     92% 0 in 0 W/m2
03:29 51.6 °F 49.5 °F 30.1 in Calm     92% 0 in 0 W/m2
03:34 51.4 °F 49.3 °F 30.1 in Calm     92% 0 in 0 W/m2
03:39 51.4 °F 49.5 °F 30.1 in Calm     93% 0 in 0 W/m2
03:44 51.3 °F 49.3 °F 30.1 in Calm     93% 0 in 0 W/m2
03:49 51.3 °F 49.3 °F 30.1 in Calm     93% 0 in 0 W/m2
03:54 51.1 °F 49.1 °F 30.1 in Calm     93% 0 in 0 W/m2
03:59 51.1 °F 49.1 °F 30.1 in Calm     93% 0 in 0 W/m2
04:04 50.9 °F 48.9 °F 30.1 in Calm     93% 0 in 0 W/m2
04:09 50.7 °F 48.7 °F 30.1 in Calm     93% 0 in 0 W/m2
04:14 50.7 °F 48.7 °F 30.1 in Calm     93% 0 in 0 W/m2
04:19 50.7 °F 48.7 °F 30.1 in Calm     93% 0 in 0 W/m2
04:25 50.7 °F 49.1 °F 30.1 in Calm     94% 0 in 0 W/m2
04:30 50.7 °F 49.1 °F 30.1 in Calm     94% 0 in 0 W/m2
04:35 50.5 °F 48.9 °F 30.1 in Calm     94% 0 in 0 W/m2
04:40 50.5 °F 48.9 °F 30.1 in Calm     94% 0 in 0 W/m2
04:45 50.5 °F 48.9 °F 30.1 in Calm     94% 0 in 0 W/m2
04:50 50.5 °F 48.9 °F 30.1 in Calm     94% 0 in 0 W/m2
04:55 50.5 °F 48.9 °F 30.1 in Calm     94% 0 in 0 W/m2
05:00 50.5 °F 48.9 °F 30.1 in Calm     94% 0 in 0 W/m2
05:05 50.5 °F 48.9 °F 30.1 in Calm     94% 0 in 0 W/m2
05:10 50.5 °F 48.9 °F 30.1 in Calm   1 mph 94% 0 in 0 W/m2
05:15 50.5 °F 48.9 °F 30.1 in Calm   2 mph 94% 0 in 0 W/m2
05:20 50.5 °F 48.9 °F 30.1 in Calm     94% 0 in 0 W/m2
05:25 50.4 °F 48.7 °F 30.1 in WNW 0.9 mph 2 mph 94% 0 in 0 W/m2
05:30 50.4 °F 48.7 °F 30.1 in Calm     94% 0 in 0 W/m2
05:35 50.4 °F 48.7 °F 30.1 in Calm   2 mph 94% 0 in 0 W/m2
05:40 50.4 °F 48.9 °F 30.1 in Calm     95% 0 in 0 W/m2
05:45 50.4 °F 48.9 °F 30.1 in Calm     95% 0 in 0 W/m2
05:50 50.4 °F 48.7 °F 30.1 in Calm     94% 0 in 0 W/m2
05:55 50.2 °F 48.6 °F 30.1 in Calm     94% 0 in 0 W/m2
06:00 50 °F 48.6 °F 30.1 in Calm     95% 0 in 0 W/m2
06:05 50 °F 48.6 °F 30.1 in Calm     95% 0 in 0 W/m2
06:10 49.8 °F 48.4 °F 30.1 in Calm     95% 0 in 0 W/m2
06:15 49.8 °F 48.4 °F 30.1 in Calm     95% 0 in 0 W/m2
06:20 49.8 °F 48.4 °F 30.1 in Calm     95% 0 in 0 W/m2
06:25 49.8 °F 48.4 °F 30.1 in Calm     95% 0 in 0 W/m2
06:30 49.8 °F 48.4 °F 30.1 in Calm     95% 0 in 0 W/m2
06:35 49.8 °F 48.4 °F 30.1 in Calm     95% 0 in 0 W/m2
06:40 49.6 °F 48.2 °F 30.1 in Calm     95% 0 in 0 W/m2
06:45 49.6 °F 48.2 °F 30.1 in Calm     95% 0 in 0 W/m2
06:50 49.5 °F 48 °F 30.1 in Calm     95% 0 in 0 W/m2
06:55 49.5 °F 48 °F 30.1 in Calm     95% 0 in 0 W/m2
07:00 49.5 °F 48 °F 30.1 in Calm   1 mph 95% 0 in 0 W/m2
07:05 49.3 °F 47.8 °F 30.1 in Calm     95% 0 in 0 W/m2
07:10 49.3 °F 47.8 °F 30.1 in Calm   1 mph 95% 0 in 0 W/m2
07:15 49.3 °F 47.8 °F 30.1 in Calm     95% 0 in 0 W/m2
07:20 49.1 °F 47.7 °F 30.1 in Calm     95% 0 in 0 W/m2
07:25 48.9 °F 47.5 °F 30.1 in Calm     95% 0 in 0 W/m2
07:30 48.9 °F 47.5 °F 30.1 in Calm     95% 0 in 5 W/m2
07:35 48.9 °F 47.5 °F 30.1 in Calm     95% 0 in 7 W/m2
08:12 50 °F 48.9 °F 30.1 in Calm   1 mph 96% 0 in 21 W/m2
08:17 50.2 °F 49.1 °F 30.1 in WNW 0.9 mph 2 mph 96% 0 in 23 W/m2
08:22 50.4 °F 49.3 °F 30.1 in West 2 mph 2 mph 96% 0 in 25 W/m2
08:27 50.5 °F 49.5 °F 30.1 in Calm   2 mph 96% 0 in 28 W/m2
08:32 50.7 °F 49.6 °F 30.1 in Calm   2 mph 96% 0 in 30 W/m2
08:37 50.9 °F 49.8 °F 30.1 in Calm     96% 0 in 32 W/m2
08:42 51.1 °F 50 °F 30.1 in Calm   2 mph 96% 0 in 33 W/m2
08:47 51.1 °F 50 °F 30.1 in WSW 0.9 mph 1 mph 96% 0 in 35 W/m2
08:52 51.3 °F 50.2 °F 30.1 in Calm   1 mph 96% 0 in 35 W/m2
08:57 51.4 °F 50.4 °F 30.1 in Calm     96% 0 in 37 W/m2
09:02 51.6 °F 50.5 °F 30.1 in Calm     96% 0 in 39 W/m2
09:07 52 °F 50.9 °F 30.1 in Calm     96% 0 in 109 W/m2
09:12 52.3 °F 51.3 °F 30.1 in Calm     96% 0 in 181 W/m2
09:17 52.9 °F 51.8 °F 30.1 in WNW 0.9 mph 1 mph 96% 0 in 195 W/m2
09:22 53.4 °F 52.3 °F 30.1 in Calm     96% 0 in 209 W/m2
09:27 54 °F 52.9 °F 30.1 in Calm     96% 0 in 223 W/m2
09:32 54.7 °F 53.6 °F 30.1 in Calm     96% 0 in 234 W/m2
09:37 55.6 °F 54.5 °F 30.1 in NNW 0.9 mph 2 mph 96% 0 in 251 W/m2
09:42 56.3 °F 54.9 °F 30.1 in NE 0.9 mph 2 mph 95% 0 in 264 W/m2
09:47 57.2 °F 55.4 °F 30.1 in Calm   2 mph 94% 0 in 276 W/m2
09:52 58.1 °F 55.8 °F 30.1 in SW 0.9 mph 3 mph 92% 0 in 290 W/m2
09:57 58.6 °F 55.9 °F 30.1 in Calm     91% 0 in 299 W/m2
10:02 59.4 °F 55.8 °F 30.1 in WNW 0.9 mph 3 mph 88% 0 in 309 W/m2
10:07 59.5 °F 55.4 °F 30.1 in West 2.9 mph 9 mph 86% 0 in 327 W/m2
10:12 59.5 °F 55.4 °F 30.1 in NW 4.9 mph 7 mph 86% 0 in 353 W/m2
10:17 59.5 °F 55 °F 30.1 in WNW 2.9 mph 4 mph 85% 0 in 388 W/m2
10:22 59.7 °F 55.2 °F 30.1 in NW 2.9 mph 5 mph 85% 0 in 313 W/m2
10:27 60.1 °F 55.6 °F 30.1 in NW 0.9 mph 4 mph 85% 0 in 290 W/m2
10:32 60.4 °F 56.3 °F 30.1 in Calm   1 mph 86% 0 in 404 W/m2
10:37 60.8 °F 55.9 °F 30.1 in WNW 4.9 mph 9 mph 84% 0 in 439 W/m2
10:42 61.2 °F 56.3 °F 30.1 in SW 0.9 mph 6 mph 84% 0 in 469 W/m2
10:47 61.5 °F 56.3 °F 30.1 in WNW 6.9 mph 9 mph 83% 0 in 232 W/m2
10:52 61.7 °F 56.1 °F 30.1 in NW 2 mph 3 mph 82% 0 in 257 W/m2
10:57 62.1 °F 56.5 °F 30.1 in WSW 0.9 mph 4 mph 82% 0 in 302 W/m2
11:02 62.4 °F 56.8 °F 30.1 in NW 2.9 mph 5 mph 82% 0 in 473 W/m2
11:07 63 °F 57 °F 30.1 in WNW 2 mph 11 mph 81% 0 in 475 W/m2
11:12 63.3 °F 57.4 °F 30.1 in West 2 mph 7 mph 81% 0 in 489 W/m2
11:17 63.5 °F 57.2 °F 30.1 in West 4 mph 11 mph 80% 0 in 494 W/m2
11:22 63.9 °F 57.6 °F 30.1 in WSW 4 mph 8 mph 80% 0 in 508 W/m2
11:27 64 °F 57.4 °F 30.1 in WNW 2.9 mph 7 mph 79% 0 in 513 W/m2
11:32 64.2 °F 57.2 °F 30.1 in NW 2 mph 7 mph 78% 0 in 522 W/m2
11:37 64.4 °F 57.4 °F 30.1 in SW 4.9 mph 6 mph 78% 0 in 533 W/m2
11:42 64.6 °F 57.6 °F 30.1 in West 8.9 mph 10 mph 78% 0 in 541 W/m2
11:47 64.8 °F 57.4 °F 30.1 in NW 2.9 mph 7 mph 77% 0 in 545 W/m2
11:52 64.8 °F 57.4 °F 30.1 in WSW 2.9 mph 9 mph 77% 0 in 554 W/m2
11:57 64.9 °F 57.2 °F 30.1 in West 2 mph 9 mph 76% 0 in 561 W/m2
12:02 65.1 °F 57.4 °F 30.1 in WNW 8.1 mph 8 mph 76% 0 in 568 W/m2
12:07 65.5 °F 57.4 °F 30.1 in NW 4 mph 6 mph 75% 0 in 577 W/m2
12:12 65.7 °F 57.6 °F 30.1 in NW 2.9 mph 7 mph 75% 0 in 584 W/m2
12:17 65.7 °F 57.2 °F 30.1 in NW 2 mph 8 mph 74% 0 in 589 W/m2
12:22 65.8 °F 57.7 °F 30.1 in NW 2.9 mph 6 mph 75% 0 in 592 W/m2
12:27 65.8 °F 57.4 °F 30.1 in WSW 2.9 mph 6 mph 74% 0 in 613 W/m2
12:32 66 °F 57.6 °F 30.1 in WNW 6 mph 8 mph 74% 0 in 626 W/m2
12:37 66.4 °F 57.4 °F 30.1 in Calm   4 mph 73% 0 in 652 W/m2
12:42 66.6 °F 58.1 °F 30.1 in WNW 0.9 mph 2 mph 74% 0 in 629 W/m2
12:47 66.9 °F 57.9 °F 30.1 in WNW 2 mph 4 mph 73% 0 in 619 W/m2
12:52 67.3 °F 58.3 °F 30.1 in NW 2.9 mph 8 mph 73% 0 in 722 W/m2
12:57 67.3 °F 57.9 °F 30.1 in NW 2.9 mph 3 mph 72% 0 in 740 W/m2
13:02 67.6 °F 58.3 °F 30.1 in WSW 0.9 mph 3 mph 72% 0 in 745 W/m2
13:07 67.8 °F 58.1 °F 30.1 in West 2.9 mph 7 mph 71% 0 in 267 W/m2
13:12 67.6 °F 57.9 °F 30.1 in NW 2 mph 5 mph 71% 0 in 269 W/m2
13:17 67.8 °F 58.1 °F 30.1 in West 2 mph 3 mph 71% 0 in 253 W/m2
13:22 68.4 °F 59 °F 30.1 in West 4 mph 9 mph 72% 0 in 858 W/m2
13:27 68.7 °F 58.1 °F 30.1 in West 2 mph 4 mph 69% 0 in 805 W/m2
13:32 68.5 °F 57.9 °F 30.1 in WNW 2 mph 9 mph 69% 0 in 306 W/m2
13:37 68.2 °F 57.6 °F 30.1 in NW 0.9 mph 6 mph 69% 0 in 274 W/m2
13:42 68.2 °F 58.1 °F 30.1 in WNW 4.9 mph 9 mph 70% 0 in 264 W/m2
13:47 68.2 °F 58.1 °F 30.1 in SW 2 mph 3 mph 70% 0 in 160 W/m2
13:52 68 °F 57.9 °F 30.1 in West 2 mph 8 mph 70% 0 in 165 W/m2
13:57 68.2 °F 58.1 °F 30.1 in WNW 2 mph 2 mph 70% 0 in 749 W/m2
14:02 68.5 °F 58.3 °F 30.1 in Calm   1 mph 70% 0 in 744 W/m2
14:07 69.1 °F 58.1 °F 30.1 in West 6 mph 9 mph 68% 0 in 763 W/m2
14:12 68.9 °F 57.6 °F 30.1 in West 6 mph 8 mph 67% 0 in 141 W/m2
14:17 68.4 °F 57 °F 30.1 in WNW 4 mph 9 mph 67% 0 in 137 W/m2
14:22 68 °F 57 °F 30.1 in West 2 mph 4 mph 68% 0 in 134 W/m2
14:27 67.8 °F 57.2 °F 30.1 in West 2 mph 7 mph 69% 0 in 633 W/m2
14:32 68.5 °F 57.6 °F 30 in West 4 mph 9 mph 68% 0 in 722 W/m2
14:37 68.7 °F 57.4 °F 30 in NW 2.9 mph 4 mph 67% 0 in 167 W/m2
14:42 69.1 °F 58.1 °F 30 in West 6 mph 9 mph 68% 0 in 656 W/m2
14:47 69.3 °F 57.4 °F 30 in NNW 2 mph 4 mph 66% 0 in 626 W/m2
14:52 69.3 °F 57.9 °F 30 in West 2.9 mph 4 mph 67% 0 in 717 W/m2
14:57 69.8 °F 57.9 °F 30 in North 0.9 mph 3 mph 66% 0 in 650 W/m2
15:02 70.2 °F 58.3 °F 30 in NNW 0.9 mph 4 mph 66% 0 in 599 W/m2
15:07 70.3 °F 58.5 °F 30 in WSW 2.9 mph 6 mph 66% 0 in 601 W/m2
15:12 70.3 °F 58.1 °F 30 in NNW 2 mph 5 mph 65% 0 in 603 W/m2
15:17 70.7 °F 58.3 °F 30 in Calm   3 mph 65% 0 in 589 W/m2
15:23 71.2 °F 58.5 °F 30 in NW 4 mph 9 mph 64% 0 in 575 W/m2
15:28 71.1 °F 57.7 °F 30 in SW 2 mph 4 mph 63% 0 in 578 W/m2
15:33 71.4 °F 58.1 °F 30 in West 0.9 mph 9 mph 63% 0 in 564 W/m2
15:38 71.8 °F 58.5 °F 30 in WNW 0.9 mph 2 mph 63% 0 in 550 W/m2
15:43 72 °F 58.3 °F 30 in WNW 4.9 mph 7 mph 62% 0 in 541 W/m2
15:48 71.8 °F 57.6 °F 30 in NNW 0.9 mph 4 mph 61% 0 in 538 W/m2
15:53 71.8 °F 57.2 °F 30 in SW 0.9 mph 7 mph 60% 0 in 517 W/m2
15:58 72 °F 57.7 °F 30 in NW 0.9 mph 2 mph 61% 0 in 512 W/m2
16:03 72 °F 56.8 °F 30 in NW 2.9 mph 7 mph 59% 0 in 501 W/m2
16:08 72.1 °F 57.9 °F 30 in Calm   2 mph 61% 0 in 490 W/m2
16:13 72.3 °F 56.7 °F 30 in North 0.9 mph 5 mph 58% 0 in 480 W/m2
16:18 72.1 °F 57 °F 30 in Calm   3 mph 59% 0 in 462 W/m2
16:23 72.1 °F 57 °F 30 in WNW 2.9 mph 5 mph 59% 0 in 461 W/m2
16:28 72 °F 57.4 °F 30 in East 2 mph 3 mph 60% 0 in 432 W/m2
16:33 72.1 °F 57.6 °F 30 in West 2.9 mph 6 mph 60% 0 in 394 W/m2
16:38 72.1 °F 57.6 °F 30 in SSE 0.9 mph 3 mph 60% 0 in 387 W/m2
16:43 72.3 °F 58.1 °F 30 in West 2 mph 4 mph 61% 0 in 406 W/m2
16:48 72.3 °F 56.7 °F 30 in WSW 2 mph 4 mph 58% 0 in 401 W/m2
16:53 72.1 °F 57 °F 30 in Calm   4 mph 59% 0 in 387 W/m2
16:58 72.3 °F 56.7 °F 30 in Calm   1 mph 58% 0 in 373 W/m2
17:03 72.3 °F 57.2 °F 30 in Calm   3 mph 59% 0 in 359 W/m2
17:08 72.3 °F 56.7 °F 30 in WNW 0.9 mph 5 mph 58% 0 in 346 W/m2
17:13 72.3 °F 57.2 °F 30 in NE 0.9 mph 3 mph 59% 0 in 334 W/m2
17:18 72.3 °F 57.7 °F 30 in Calm   1 mph 60% 0 in 322 W/m2
17:23 72.3 °F 57.2 °F 30 in North 2 mph 2 mph 59% 0 in 306 W/m2
17:28 72.3 °F 57.7 °F 30 in ESE 0.9 mph 2 mph 60% 0 in 292 W/m2
17:33 72.3 °F 57.7 °F 30 in WSW 2 mph 3 mph 60% 0 in 279 W/m2
17:38 72.3 °F 57.2 °F 30 in WNW 2 mph 4 mph 59% 0 in 267 W/m2
17:43 72.3 °F 57.2 °F 30 in WNW 0.9 mph 2 mph 59% 0 in 253 W/m2
17:48 72.3 °F 58.6 °F 30 in NW 0.9 mph 4 mph 62% 0 in 237 W/m2
17:53 72.3 °F 59 °F 30 in WSW 2 mph 2 mph 63% 0 in 223 W/m2
17:58 72.3 °F 58.1 °F 30 in WSW 0.9 mph 2 mph 61% 0 in 211 W/m2
18:03 72.1 °F 58.8 °F 30 in WSW 0.9 mph 1 mph 63% 0 in 179 W/m2
18:08 71.8 °F 58.1 °F 30 in West 2 mph 3 mph 62% 0 in 149 W/m2
18:13 71.4 °F 58.1 °F 30 in Calm   1 mph 63% 0 in 169 W/m2
18:18 71.4 °F 58.6 °F 30 in Calm   3 mph 64% 0 in 151 W/m2
18:23 71.2 °F 58.8 °F 30 in Calm   1 mph 65% 0 in 100 W/m2
18:28 70.9 °F 58.5 °F 30 in Calm     65% 0 in 28 W/m2
18:33 70.2 °F 58.3 °F 30 in Calm     66% 0 in 26 W/m2
18:38 69.4 °F 57.9 °F 30 in West 0.9 mph 1 mph 67% 0 in 23 W/m2
18:43 68.7 °F 57.7 °F 30 in West 0.9 mph 1 mph 68% 0 in 21 W/m2
18:48 68.4 °F 57.7 °F 30 in West 0.9 mph 2 mph 69% 0 in 19 W/m2
18:53 67.6 °F 57.6 °F 30 in Calm   1 mph 70% 0 in 18 W/m2
18:58 67.1 °F 57 °F 30 in Calm     70% 0 in 16 W/m2
19:03 66.6 °F 56.8 °F 30 in Calm     71% 0 in 14 W/m2
19:08 66 °F 56.7 °F 30 in Calm     72% 0 in 12 W/m2
19:13 65.7 °F 56.8 °F 30 in Calm     73% 0 in 11 W/m2
19:18 65.1 °F 56.3 °F 30 in Calm     73% 0 in 9 W/m2
19:23 64.6 °F 56.1 °F 30 in WSW 0.9 mph 1 mph 74% 0 in 7 W/m2
19:28 64.2 °F 55.8 °F 30 in WSW 0.9 mph 1 mph 74% 0 in 5 W/m2
19:33 64 °F 55.2 °F 30 in SSW 2.9 mph 4 mph 73% 0 in 0 W/m2
19:39 64 °F 54.9 °F 30 in NW 2 mph 4 mph 72% 0 in 0 W/m2
19:44 64.2 °F 54.7 °F 30 in West 2 mph 4 mph 71% 0 in 0 W/m2
19:49 64.6 °F 54.5 °F 30 in West 2 mph 4 mph 70% 0 in 0 W/m2
19:54 64.6 °F 54.1 °F 30 in West 2 mph 4 mph 69% 0 in 0 W/m2
19:59 64.6 °F 54.1 °F 30 in WSW 2 mph 3 mph 69% 0 in 0 W/m2
20:04 64.2 °F 53.8 °F 30 in West 2 mph 5 mph 69% 0 in 0 W/m2
20:09 64.2 °F 53.8 °F 30 in West 4 mph 4 mph 69% 0 in 0 W/m2
20:14 64 °F 53.6 °F 30 in WSW 0.9 mph 3 mph 69% 0 in 0 W/m2
20:19 63.9 °F 53.1 °F 30 in West 2 mph 3 mph 68% 0 in 0 W/m2
20:24 63.7 °F 53.2 °F 30 in West 2 mph 3 mph 69% 0 in 0 W/m2
20:29 63.5 °F 53.1 °F 30 in West 0.9 mph 4 mph 69% 0 in 0 W/m2
20:34 63.3 °F 53.1 °F 30 in WSW 2 mph 3 mph 69% 0 in 0 W/m2
20:39 63.1 °F 53.6 °F 30 in WSW 2.9 mph 4 mph 71% 0 in 0 W/m2
20:44 63 °F 53.1 °F 30 in WSW 0.9 mph 2 mph 70% 0 in 0 W/m2
20:49 62.8 °F 53.2 °F 30 in WSW 2 mph 4 mph 71% 0 in 0 W/m2
20:54 62.4 °F 53.2 °F 30 in Calm     72% 0 in 0 W/m2
20:59 62.2 °F 53.4 °F 30 in Calm     73% 0 in 0 W/m2
21:04 61.7 °F 53.8 °F 30 in Calm     75% 0 in 0 W/m2
21:09 61.2 °F 53.6 °F 30 in Calm     76% 0 in 0 W/m2
21:14 60.6 °F 53.1 °F 30 in Calm     76% 0 in 0 W/m2
21:19 60.3 °F 53.4 °F 30 in Calm   1 mph 78% 0 in 0 W/m2
21:24 59.5 °F 53.1 °F 30 in WSW 0.9 mph 1 mph 79% 0 in 0 W/m2
21:29 59.2 °F 52.7 °F 30 in Calm     79% 0 in 0 W/m2
21:34 58.6 °F 52.5 °F 30 in WSW 0.9 mph 2 mph 80% 0 in 0 W/m2
21:39 58.5 °F 52.7 °F 30 in Calm     81% 0 in 0 W/m2
21:44 58.1 °F 52.3 °F 30 in Calm   2 mph 81% 0 in 0 W/m2
21:49 57.7 °F 52.3 °F 30 in Calm     82% 0 in 0 W/m2
21:54 57.4 °F 52.3 °F 30 in Calm     83% 0 in 0 W/m2
21:59 57 °F 52 °F 30 in Calm     83% 0 in 0 W/m2
22:04 56.8 °F 52 °F 30 in Calm     84% 0 in 0 W/m2
22:09 56.7 °F 52.2 °F 30 in Calm     85% 0 in 0 W/m2
22:14 56.5 °F 52 °F 30 in Calm     85% 0 in 0 W/m2
22:19 56.3 °F 52.2 °F 30 in Calm     86% 0 in 0 W/m2
22:24 56.1 °F 52 °F 30 in Calm     86% 0 in 0 W/m2
22:29 55.9 °F 51.8 °F 30 in Calm     86% 0 in 0 W/m2
22:34 55.8 °F 52 °F 30 in Calm     87% 0 in 0 W/m2
22:39 55.8 °F 52 °F 30 in Calm     87% 0 in 0 W/m2
22:44 55.6 °F 51.8 °F 30 in Calm     87% 0 in 0 W/m2
22:49 55.2 °F 51.8 °F 30 in Calm     88% 0 in 0 W/m2
22:54 55.2 °F 51.8 °F 30 in Calm     88% 0 in 0 W/m2
22:59 55 °F 51.8 °F 30 in Calm     89% 0 in 0 W/m2
23:04 54.9 °F 51.6 °F 30 in Calm     89% 0 in 0 W/m2
23:09 54.9 °F 51.6 °F 30 in Calm     89% 0 in 0 W/m2
23:14 54.7 °F 51.8 °F 30 in Calm     90% 0 in 0 W/m2
23:19 54.5 °F 51.6 °F 30 in Calm     90% 0 in 0 W/m2
23:24 54.3 °F 51.4 °F 30 in Calm     90% 0 in 0 W/m2
23:29 54.1 °F 51.3 °F 30 in Calm     90% 0 in 0 W/m2
23:34 54.1 °F 51.6 °F 30 in Calm     91% 0 in 0 W/m2
23:39 54 °F 51.4 °F 30 in Calm     91% 0 in 0 W/m2
23:44 54 °F 51.4 °F 30 in Calm     91% 0 in 0 W/m2
23:49 53.8 °F 51.4 °F 30 in Calm     92% 0 in 0 W/m2
23:54 53.8 °F 51.4 °F 30 in Calm     92% 0 in 0 W/m2
23:59 53.4 °F 51.1 °F 30 in Calm     92% 0 in 0 W/m2
Juneau County Weather
Compliments of Weather Underground - 4 mb